sensor_id;sensor_type;location;lat;lon;timestamp;temperature;humidity
55642;DHT22;41509;53.108;6.100;2022-11-25T00:01:16;7.80;99.90
55642;DHT22;41509;53.108;6.100;2022-11-25T00:03:43;7.80;99.90
55642;DHT22;41509;53.108;6.100;2022-11-25T00:06:13;7.70;99.90
55642;DHT22;41509;53.108;6.100;2022-11-25T00:08:40;7.80;99.90
55642;DHT22;41509;53.108;6.100;2022-11-25T00:11:06;7.80;99.90
55642;DHT22;41509;53.108;6.100;2022-11-25T00:13:32;7.80;99.90
55642;DHT22;41509;53.108;6.100;2022-11-25T00:16:21;7.80;99.90
55642;DHT22;41509;53.108;6.100;2022-11-25T00:18:51;7.80;99.90
55642;DHT22;41509;53.108;6.100;2022-11-25T00:21:23;7.80;99.90
55642;DHT22;41509;53.108;6.100;2022-11-25T00:23:53;7.80;99.90
55642;DHT22;41509;53.108;6.100;2022-11-25T00:26:20;7.80;99.90
55642;DHT22;41509;53.108;6.100;2022-11-25T00:28:46;7.80;99.90
55642;DHT22;41509;53.108;6.100;2022-11-25T00:31:14;7.80;99.90
55642;DHT22;41509;53.108;6.100;2022-11-25T00:33:40;7.80;99.90
55642;DHT22;41509;53.108;6.100;2022-11-25T00:36:23;7.80;99.90
55642;DHT22;41509;53.108;6.100;2022-11-25T00:38:58;7.80;99.90
55642;DHT22;41509;53.108;6.100;2022-11-25T00:41:25;7.80;99.90
55642;DHT22;41509;53.108;6.100;2022-11-25T00:44:11;7.80;99.90
55642;DHT22;41509;53.108;6.100;2022-11-25T00:46:55;7.80;99.90
55642;DHT22;41509;53.108;6.100;2022-11-25T00:49:21;7.80;99.90
55642;DHT22;41509;53.108;6.100;2022-11-25T00:51:47;7.80;99.90
55642;DHT22;41509;53.108;6.100;2022-11-25T00:54:12;7.80;99.90
55642;DHT22;41509;53.108;6.100;2022-11-25T00:56:38;7.80;99.90
55642;DHT22;41509;53.108;6.100;2022-11-25T00:59:04;7.80;99.90
55642;DHT22;41509;53.108;6.100;2022-11-25T01:01:30;7.80;99.90
55642;DHT22;41509;53.108;6.100;2022-11-25T01:03:55;7.90;99.90
55642;DHT22;41509;53.108;6.100;2022-11-25T01:06:21;7.90;99.90
55642;DHT22;41509;53.108;6.100;2022-11-25T01:08:47;7.90;99.90
55642;DHT22;41509;53.108;6.100;2022-11-25T01:11:15;7.90;99.90
55642;DHT22;41509;53.108;6.100;2022-11-25T01:13:41;7.90;99.90
55642;DHT22;41509;53.108;6.100;2022-11-25T01:16:10;7.90;99.90
55642;DHT22;41509;53.108;6.100;2022-11-25T01:18:35;7.90;99.90
55642;DHT22;41509;53.108;6.100;2022-11-25T01:21:19;7.90;99.90
55642;DHT22;41509;53.108;6.100;2022-11-25T01:23:45;7.90;99.90
55642;DHT22;41509;53.108;6.100;2022-11-25T01:26:14;7.90;99.90
55642;DHT22;41509;53.108;6.100;2022-11-25T01:28:40;7.90;99.90
55642;DHT22;41509;53.108;6.100;2022-11-25T01:31:17;7.90;99.90
55642;DHT22;41509;53.108;6.100;2022-11-25T01:33:44;7.90;99.90
55642;DHT22;41509;53.108;6.100;2022-11-25T01:36:13;8.00;99.90
55642;DHT22;41509;53.108;6.100;2022-11-25T01:38:39;8.00;99.90
55642;DHT22;41509;53.108;6.100;2022-11-25T01:41:07;8.00;99.90
55642;DHT22;41509;53.108;6.100;2022-11-25T01:43:33;8.00;99.90
55642;DHT22;41509;53.108;6.100;2022-11-25T01:48:40;8.00;99.90
55642;DHT22;41509;53.108;6.100;2022-11-25T01:52:37;8.00;99.90
55642;DHT22;41509;53.108;6.100;2022-11-25T01:54:36;8.00;99.90
55642;DHT22;41509;53.108;6.100;2022-11-25T01:57:08;8.00;99.90
55642;DHT22;41509;53.108;6.100;2022-11-25T01:59:40;8.00;99.90
55642;DHT22;41509;53.108;6.100;2022-11-25T02:02:08;8.00;99.90
55642;DHT22;41509;53.108;6.100;2022-11-25T02:04:37;8.00;99.90
55642;DHT22;41509;53.108;6.100;2022-11-25T02:07:08;8.00;99.90
55642;DHT22;41509;53.108;6.100;2022-11-25T02:09:38;8.00;99.90
55642;DHT22;41509;53.108;6.100;2022-11-25T02:12:06;8.00;99.90
55642;DHT22;41509;53.108;6.100;2022-11-25T02:14:32;8.00;99.90
55642;DHT22;41509;53.108;6.100;2022-11-25T02:16:59;8.00;99.90
55642;DHT22;41509;53.108;6.100;2022-11-25T02:22:14;8.00;99.90
55642;DHT22;41509;53.108;6.100;2022-11-25T02:24:45;7.90;99.90
55642;DHT22;41509;53.108;6.100;2022-11-25T02:27:12;8.00;99.90
55642;DHT22;41509;53.108;6.100;2022-11-25T02:29:38;8.00;99.90
55642;DHT22;41509;53.108;6.100;2022-11-25T02:32:04;7.90;99.90
55642;DHT22;41509;53.108;6.100;2022-11-25T02:34:30;8.00;99.90
55642;DHT22;41509;53.108;6.100;2022-11-25T02:36:56;8.00;99.90
55642;DHT22;41509;53.108;6.100;2022-11-25T02:39:22;8.00;99.90
55642;DHT22;41509;53.108;6.100;2022-11-25T02:41:53;8.00;99.90
55642;DHT22;41509;53.108;6.100;2022-11-25T02:44:20;7.90;99.90
55642;DHT22;41509;53.108;6.100;2022-11-25T02:46:46;8.00;99.90
55642;DHT22;41509;53.108;6.100;2022-11-25T02:49:11;8.00;99.90
55642;DHT22;41509;53.108;6.100;2022-11-25T02:51:39;8.00;99.90
55642;DHT22;41509;53.108;6.100;2022-11-25T02:54:06;8.00;99.90
55642;DHT22;41509;53.108;6.100;2022-11-25T02:56:33;8.00;99.90
55642;DHT22;41509;53.108;6.100;2022-11-25T02:59:00;8.00;99.90
55642;DHT22;41509;53.108;6.100;2022-11-25T03:01:26;8.00;99.90
55642;DHT22;41509;53.108;6.100;2022-11-25T03:03:52;8.00;99.90
55642;DHT22;41509;53.108;6.100;2022-11-25T03:06:18;8.00;99.90
55642;DHT22;41509;53.108;6.100;2022-11-25T03:08:43;8.10;99.90
55642;DHT22;41509;53.108;6.100;2022-11-25T03:11:09;8.10;99.90
55642;DHT22;41509;53.108;6.100;2022-11-25T03:13:35;8.10;99.90
55642;DHT22;41509;53.108;6.100;2022-11-25T03:16:01;8.10;99.90
55642;DHT22;41509;53.108;6.100;2022-11-25T03:18:26;8.10;99.90
55642;DHT22;41509;53.108;6.100;2022-11-25T03:20:53;8.10;99.90
55642;DHT22;41509;53.108;6.100;2022-11-25T03:23:19;8.10;99.90
55642;DHT22;41509;53.108;6.100;2022-11-25T03:25:45;8.10;99.90
55642;DHT22;41509;53.108;6.100;2022-11-25T03:28:10;8.10;99.90
55642;DHT22;41509;53.108;6.100;2022-11-25T03:30:36;8.10;99.90
55642;DHT22;41509;53.108;6.100;2022-11-25T03:33:01;8.10;99.90
55642;DHT22;41509;53.108;6.100;2022-11-25T03:35:27;8.10;99.90
55642;DHT22;41509;53.108;6.100;2022-11-25T03:37:54;8.20;99.90
55642;DHT22;41509;53.108;6.100;2022-11-25T03:40:19;8.10;99.90
55642;DHT22;41509;53.108;6.100;2022-11-25T03:42:45;8.20;99.90
55642;DHT22;41509;53.108;6.100;2022-11-25T03:45:12;8.20;99.90
55642;DHT22;41509;53.108;6.100;2022-11-25T03:47:39;8.20;99.90
55642;DHT22;41509;53.108;6.100;2022-11-25T03:50:06;8.20;99.90
55642;DHT22;41509;53.108;6.100;2022-11-25T03:52:32;8.20;99.90
55642;DHT22;41509;53.108;6.100;2022-11-25T03:54:57;8.20;99.90
55642;DHT22;41509;53.108;6.100;2022-11-25T03:57:23;8.20;99.90
55642;DHT22;41509;53.108;6.100;2022-11-25T03:59:49;8.30;99.90
55642;DHT22;41509;53.108;6.100;2022-11-25T04:02:14;8.20;99.90
55642;DHT22;41509;53.108;6.100;2022-11-25T04:04:40;8.20;99.90
55642;DHT22;41509;53.108;6.100;2022-11-25T04:07:06;8.20;99.90
55642;DHT22;41509;53.108;6.100;2022-11-25T04:09:31;8.30;99.90
55642;DHT22;41509;53.108;6.100;2022-11-25T04:11:57;8.20;99.90
55642;DHT22;41509;53.108;6.100;2022-11-25T04:14:41;8.20;99.90
55642;DHT22;41509;53.108;6.100;2022-11-25T04:17:07;8.30;99.90
55642;DHT22;41509;53.108;6.100;2022-11-25T04:19:32;8.30;99.90
55642;DHT22;41509;53.108;6.100;2022-11-25T04:21:58;8.30;99.90
55642;DHT22;41509;53.108;6.100;2022-11-25T04:24:27;8.30;99.90
55642;DHT22;41509;53.108;6.100;2022-11-25T04:26:53;8.30;99.90
55642;DHT22;41509;53.108;6.100;2022-11-25T04:29:19;8.30;99.90
55642;DHT22;41509;53.108;6.100;2022-11-25T04:31:45;8.20;99.90
55642;DHT22;41509;53.108;6.100;2022-11-25T04:34:11;8.30;99.90
55642;DHT22;41509;53.108;6.100;2022-11-25T04:36:36;8.30;99.90
55642;DHT22;41509;53.108;6.100;2022-11-25T04:39:03;8.30;99.90
55642;DHT22;41509;53.108;6.100;2022-11-25T04:41:29;8.30;99.90
55642;DHT22;41509;53.108;6.100;2022-11-25T04:43:54;8.30;99.90
55642;DHT22;41509;53.108;6.100;2022-11-25T04:46:22;8.30;99.90
55642;DHT22;41509;53.108;6.100;2022-11-25T04:48:49;8.30;99.90
55642;DHT22;41509;53.108;6.100;2022-11-25T04:51:15;8.30;99.90
55642;DHT22;41509;53.108;6.100;2022-11-25T04:53:41;8.30;99.90
55642;DHT22;41509;53.108;6.100;2022-11-25T04:56:09;8.30;99.90
55642;DHT22;41509;53.108;6.100;2022-11-25T04:58:38;8.30;99.90
55642;DHT22;41509;53.108;6.100;2022-11-25T05:01:22;8.30;99.90
55642;DHT22;41509;53.108;6.100;2022-11-25T05:03:48;8.40;99.90
55642;DHT22;41509;53.108;6.100;2022-11-25T05:06:14;8.30;99.90
55642;DHT22;41509;53.108;6.100;2022-11-25T05:08:40;8.30;99.90
55642;DHT22;41509;53.108;6.100;2022-11-25T05:11:05;8.30;99.90
55642;DHT22;41509;53.108;6.100;2022-11-25T05:13:31;8.30;99.90
55642;DHT22;41509;53.108;6.100;2022-11-25T05:15:58;8.30;99.90
55642;DHT22;41509;53.108;6.100;2022-11-25T05:18:24;8.30;99.90
55642;DHT22;41509;53.108;6.100;2022-11-25T05:20:50;8.30;99.90
55642;DHT22;41509;53.108;6.100;2022-11-25T05:23:15;8.40;99.90
55642;DHT22;41509;53.108;6.100;2022-11-25T05:25:41;8.30;99.90
55642;DHT22;41509;53.108;6.100;2022-11-25T05:28:09;8.30;99.90
55642;DHT22;41509;53.108;6.100;2022-11-25T05:30:35;8.40;99.90
55642;DHT22;41509;53.108;6.100;2022-11-25T05:33:00;8.40;99.90
55642;DHT22;41509;53.108;6.100;2022-11-25T05:35:26;8.40;99.90
55642;DHT22;41509;53.108;6.100;2022-11-25T05:37:51;8.40;99.90
55642;DHT22;41509;53.108;6.100;2022-11-25T05:40:17;8.40;99.90
55642;DHT22;41509;53.108;6.100;2022-11-25T05:42:42;8.40;99.90
55642;DHT22;41509;53.108;6.100;2022-11-25T05:45:08;8.40;99.90
55642;DHT22;41509;53.108;6.100;2022-11-25T05:47:34;8.40;99.90
55642;DHT22;41509;53.108;6.100;2022-11-25T05:49:59;8.40;99.90
55642;DHT22;41509;53.108;6.100;2022-11-25T05:52:25;8.40;99.90
55642;DHT22;41509;53.108;6.100;2022-11-25T05:54:51;8.40;99.90
55642;DHT22;41509;53.108;6.100;2022-11-25T05:57:16;8.40;99.90
55642;DHT22;41509;53.108;6.100;2022-11-25T05:59:42;8.40;99.90
55642;DHT22;41509;53.108;6.100;2022-11-25T06:02:07;8.50;99.90
55642;DHT22;41509;53.108;6.100;2022-11-25T06:04:33;8.40;99.90
55642;DHT22;41509;53.108;6.100;2022-11-25T06:06:59;8.50;99.90
55642;DHT22;41509;53.108;6.100;2022-11-25T06:09:24;8.50;99.90
55642;DHT22;41509;53.108;6.100;2022-11-25T06:11:50;8.50;99.90
55642;DHT22;41509;53.108;6.100;2022-11-25T06:14:15;8.50;99.90
55642;DHT22;41509;53.108;6.100;2022-11-25T06:16:42;8.40;99.90
55642;DHT22;41509;53.108;6.100;2022-11-25T06:19:07;8.40;99.90
55642;DHT22;41509;53.108;6.100;2022-11-25T06:21:33;8.50;99.90
55642;DHT22;41509;53.108;6.100;2022-11-25T06:23:59;8.40;99.90
55642;DHT22;41509;53.108;6.100;2022-11-25T06:26:25;8.40;99.90
55642;DHT22;41509;53.108;6.100;2022-11-25T06:28:54;8.40;99.90
55642;DHT22;41509;53.108;6.100;2022-11-25T06:31:23;8.40;99.90
55642;DHT22;41509;53.108;6.100;2022-11-25T06:33:51;8.40;99.90
55642;DHT22;41509;53.108;6.100;2022-11-25T06:36:18;8.40;99.90
55642;DHT22;41509;53.108;6.100;2022-11-25T06:38:46;8.40;99.90
55642;DHT22;41509;53.108;6.100;2022-11-25T06:41:12;8.40;99.90
55642;DHT22;41509;53.108;6.100;2022-11-25T06:43:38;8.50;99.90
55642;DHT22;41509;53.108;6.100;2022-11-25T06:46:08;8.40;99.90
55642;DHT22;41509;53.108;6.100;2022-11-25T06:48:35;8.40;99.90
55642;DHT22;41509;53.108;6.100;2022-11-25T06:51:03;8.40;99.90
55642;DHT22;41509;53.108;6.100;2022-11-25T06:53:30;8.40;99.90
55642;DHT22;41509;53.108;6.100;2022-11-25T06:58:28;8.40;99.90
55642;DHT22;41509;53.108;6.100;2022-11-25T07:01:03;8.40;99.90
55642;DHT22;41509;53.108;6.100;2022-11-25T07:03:29;8.40;99.90
55642;DHT22;41509;53.108;6.100;2022-11-25T07:05:58;8.40;99.90
55642;DHT22;41509;53.108;6.100;2022-11-25T07:08:27;8.30;99.90
55642;DHT22;41509;53.108;6.100;2022-11-25T07:10:52;8.30;99.90
55642;DHT22;41509;53.108;6.100;2022-11-25T07:13:19;8.30;99.90
55642;DHT22;41509;53.108;6.100;2022-11-25T07:15:45;8.30;99.90
55642;DHT22;41509;53.108;6.100;2022-11-25T07:18:11;8.30;99.90
55642;DHT22;41509;53.108;6.100;2022-11-25T07:20:37;8.20;99.90
55642;DHT22;41509;53.108;6.100;2022-11-25T07:23:03;8.20;99.90
55642;DHT22;41509;53.108;6.100;2022-11-25T07:25:29;8.20;99.90
55642;DHT22;41509;53.108;6.100;2022-11-25T07:27:54;8.20;99.90
55642;DHT22;41509;53.108;6.100;2022-11-25T07:30:20;8.20;99.90
55642;DHT22;41509;53.108;6.100;2022-11-25T07:32:46;8.20;99.90
55642;DHT22;41509;53.108;6.100;2022-11-25T07:35:12;8.10;99.90
55642;DHT22;41509;53.108;6.100;2022-11-25T07:37:37;8.10;99.90
55642;DHT22;41509;53.108;6.100;2022-11-25T07:40:04;8.10;99.90
55642;DHT22;41509;53.108;6.100;2022-11-25T07:42:29;8.10;99.90
55642;DHT22;41509;53.108;6.100;2022-11-25T07:44:55;8.10;99.90
55642;DHT22;41509;53.108;6.100;2022-11-25T07:47:21;8.00;99.90
55642;DHT22;41509;53.108;6.100;2022-11-25T07:49:46;8.10;99.90
55642;DHT22;41509;53.108;6.100;2022-11-25T07:52:12;8.10;99.90
55642;DHT22;41509;53.108;6.100;2022-11-25T07:54:37;8.00;99.90
55642;DHT22;41509;53.108;6.100;2022-11-25T07:57:03;8.00;99.90
55642;DHT22;41509;53.108;6.100;2022-11-25T07:59:29;8.00;99.90
55642;DHT22;41509;53.108;6.100;2022-11-25T08:01:55;8.00;99.90
55642;DHT22;41509;53.108;6.100;2022-11-25T08:04:21;8.00;99.90
55642;DHT22;41509;53.108;6.100;2022-11-25T08:06:50;8.00;99.90
55642;DHT22;41509;53.108;6.100;2022-11-25T08:09:18;8.00;99.90
55642;DHT22;41509;53.108;6.100;2022-11-25T08:11:45;8.00;99.90
55642;DHT22;41509;53.108;6.100;2022-11-25T08:14:11;8.00;99.90
55642;DHT22;41509;53.108;6.100;2022-11-25T08:16:37;8.00;99.90
55642;DHT22;41509;53.108;6.100;2022-11-25T08:19:05;8.00;99.90
55642;DHT22;41509;53.108;6.100;2022-11-25T08:21:31;7.90;99.90
55642;DHT22;41509;53.108;6.100;2022-11-25T08:23:57;8.00;99.90
55642;DHT22;41509;53.108;6.100;2022-11-25T08:26:31;7.90;99.90
55642;DHT22;41509;53.108;6.100;2022-11-25T08:29:00;8.00;99.90
55642;DHT22;41509;53.108;6.100;2022-11-25T08:31:29;8.00;99.90
55642;DHT22;41509;53.108;6.100;2022-11-25T08:33:55;8.00;99.90
55642;DHT22;41509;53.108;6.100;2022-11-25T08:36:22;8.00;99.90
55642;DHT22;41509;53.108;6.100;2022-11-25T08:38:50;8.00;99.90
55642;DHT22;41509;53.108;6.100;2022-11-25T08:41:19;8.00;99.90
55642;DHT22;41509;53.108;6.100;2022-11-25T08:43:45;8.00;99.90
55642;DHT22;41509;53.108;6.100;2022-11-25T08:46:13;8.10;99.90
55642;DHT22;41509;53.108;6.100;2022-11-25T08:48:40;8.10;99.90
55642;DHT22;41509;53.108;6.100;2022-11-25T08:51:08;8.10;99.90
55642;DHT22;41509;53.108;6.100;2022-11-25T08:53:35;8.10;99.90
55642;DHT22;41509;53.108;6.100;2022-11-25T08:56:01;8.10;99.90
55642;DHT22;41509;53.108;6.100;2022-11-25T08:58:26;8.20;99.90
55642;DHT22;41509;53.108;6.100;2022-11-25T09:00:52;8.20;99.90
55642;DHT22;41509;53.108;6.100;2022-11-25T09:03:17;8.20;99.90
55642;DHT22;41509;53.108;6.100;2022-11-25T09:05:43;8.20;99.90
55642;DHT22;41509;53.108;6.100;2022-11-25T09:08:10;8.20;99.90
55642;DHT22;41509;53.108;6.100;2022-11-25T09:10:36;8.30;99.90
55642;DHT22;41509;53.108;6.100;2022-11-25T09:13:02;8.40;99.90
55642;DHT22;41509;53.108;6.100;2022-11-25T09:15:27;8.30;99.90
55642;DHT22;41509;53.108;6.100;2022-11-25T09:18:12;8.40;99.90
55642;DHT22;41509;53.108;6.100;2022-11-25T09:20:38;8.40;99.90
55642;DHT22;41509;53.108;6.100;2022-11-25T09:23:05;8.40;99.90
55642;DHT22;41509;53.108;6.100;2022-11-25T09:25:32;8.40;99.90
55642;DHT22;41509;53.108;6.100;2022-11-25T09:27:57;8.50;99.90
55642;DHT22;41509;53.108;6.100;2022-11-25T09:30:24;8.50;99.90
55642;DHT22;41509;53.108;6.100;2022-11-25T09:32:52;8.50;99.90
55642;DHT22;41509;53.108;6.100;2022-11-25T09:35:19;8.60;99.90
55642;DHT22;41509;53.108;6.100;2022-11-25T09:37:44;8.60;99.90
55642;DHT22;41509;53.108;6.100;2022-11-25T09:40:20;8.60;99.90
55642;DHT22;41509;53.108;6.100;2022-11-25T09:47:16;8.70;99.90
55642;DHT22;41509;53.108;6.100;2022-11-25T09:49:52;8.70;99.90
55642;DHT22;41509;53.108;6.100;2022-11-25T09:54:43;8.80;99.90
55642;DHT22;41509;53.108;6.100;2022-11-25T09:57:26;8.80;99.90
55642;DHT22;41509;53.108;6.100;2022-11-25T10:02:40;8.90;99.90
55642;DHT22;41509;53.108;6.100;2022-11-25T10:05:08;9.00;99.90
55642;DHT22;41509;53.108;6.100;2022-11-25T10:07:43;9.10;99.90
55642;DHT22;41509;53.108;6.100;2022-11-25T10:10:27;9.10;99.90
55642;DHT22;41509;53.108;6.100;2022-11-25T10:12:56;9.10;99.90
55642;DHT22;41509;53.108;6.100;2022-11-25T10:15:34;9.20;99.90
55642;DHT22;41509;53.108;6.100;2022-11-25T10:18:12;9.20;99.90
55642;DHT22;41509;53.108;6.100;2022-11-25T10:20:41;9.20;99.90
55642;DHT22;41509;53.108;6.100;2022-11-25T10:23:23;9.20;99.90
55642;DHT22;41509;53.108;6.100;2022-11-25T10:25:54;9.30;99.90
55642;DHT22;41509;53.108;6.100;2022-11-25T10:28:23;9.40;99.90
55642;DHT22;41509;53.108;6.100;2022-11-25T10:33:29;9.60;99.90
55642;DHT22;41509;53.108;6.100;2022-11-25T10:38:54;9.70;99.90
55642;DHT22;41509;53.108;6.100;2022-11-25T10:41:23;9.70;99.90
55642;DHT22;41509;53.108;6.100;2022-11-25T10:43:50;9.80;99.90
55642;DHT22;41509;53.108;6.100;2022-11-25T10:46:43;9.90;99.90
55642;DHT22;41509;53.108;6.100;2022-11-25T10:49:24;10.00;99.90
55642;DHT22;41509;53.108;6.100;2022-11-25T10:51:51;10.10;99.90
55642;DHT22;41509;53.108;6.100;2022-11-25T10:54:20;10.30;99.90
55642;DHT22;41509;53.108;6.100;2022-11-25T10:56:51;10.40;99.90
55642;DHT22;41509;53.108;6.100;2022-11-25T11:01:52;10.50;99.90
55642;DHT22;41509;53.108;6.100;2022-11-25T11:04:18;10.40;99.90
55642;DHT22;41509;53.108;6.100;2022-11-25T11:06:47;10.30;99.90
55642;DHT22;41509;53.108;6.100;2022-11-25T11:09:36;10.30;99.90
55642;DHT22;41509;53.108;6.100;2022-11-25T11:14:45;10.20;99.90
55642;DHT22;41509;53.108;6.100;2022-11-25T11:17:34;10.20;99.90
55642;DHT22;41509;53.108;6.100;2022-11-25T11:22:34;10.20;99.90
55642;DHT22;41509;53.108;6.100;2022-11-25T11:27:44;10.20;99.90
55642;DHT22;41509;53.108;6.100;2022-11-25T11:30:14;10.20;99.90
55642;DHT22;41509;53.108;6.100;2022-11-25T11:32:43;10.20;99.90
55642;DHT22;41509;53.108;6.100;2022-11-25T11:38:01;10.40;99.90
55642;DHT22;41509;53.108;6.100;2022-11-25T11:40:38;10.50;99.90
55642;DHT22;41509;53.108;6.100;2022-11-25T11:51:18;10.70;99.90
55642;DHT22;41509;53.108;6.100;2022-11-25T11:56:53;10.60;99.90
55642;DHT22;41509;53.108;6.100;2022-11-25T11:59:43;10.60;99.90
55642;DHT22;41509;53.108;6.100;2022-11-25T12:12:47;10.60;99.90
55642;DHT22;41509;53.108;6.100;2022-11-25T12:15:52;10.70;99.90
55642;DHT22;41509;53.108;6.100;2022-11-25T12:21:05;10.90;99.90
55642;DHT22;41509;53.108;6.100;2022-11-25T12:26:18;11.20;99.90
55642;DHT22;41509;53.108;6.100;2022-11-25T12:28:59;11.20;99.90
55642;DHT22;41509;53.108;6.100;2022-11-25T12:31:28;11.20;99.90
55642;DHT22;41509;53.108;6.100;2022-11-25T12:34:16;11.20;99.90
55642;DHT22;41509;53.108;6.100;2022-11-25T12:36:43;11.30;99.90
55642;DHT22;41509;53.108;6.100;2022-11-25T12:39:38;11.20;99.90
55642;DHT22;41509;53.108;6.100;2022-11-25T12:42:14;11.20;99.90
55642;DHT22;41509;53.108;6.100;2022-11-25T12:47:21;11.10;99.90
55642;DHT22;41509;53.108;6.100;2022-11-25T12:49:49;11.20;99.90
55642;DHT22;41509;53.108;6.100;2022-11-25T13:01:08;11.40;99.90
55642;DHT22;41509;53.108;6.100;2022-11-25T13:09:54;11.50;99.90
55642;DHT22;41509;53.108;6.100;2022-11-25T13:15:19;11.60;99.90
55642;DHT22;41509;53.108;6.100;2022-11-25T13:17:47;11.60;99.90
55642;DHT22;41509;53.108;6.100;2022-11-25T13:25:40;11.60;99.90
55642;DHT22;41509;53.108;6.100;2022-11-25T13:30:51;11.50;99.90
55642;DHT22;41509;53.108;6.100;2022-11-25T13:38:35;11.60;99.90
55642;DHT22;41509;53.108;6.100;2022-11-25T13:46:43;11.70;99.90
55642;DHT22;41509;53.108;6.100;2022-11-25T13:49:36;11.60;99.90
55642;DHT22;41509;53.108;6.100;2022-11-25T13:52:34;11.40;99.90
55642;DHT22;41509;53.108;6.100;2022-11-25T13:58:03;11.30;99.90
55642;DHT22;41509;53.108;6.100;2022-11-25T14:20:01;11.40;99.90
55642;DHT22;41509;53.108;6.100;2022-11-25T14:25:26;11.30;99.90
55642;DHT22;41509;53.108;6.100;2022-11-25T14:30:51;11.20;99.90
55642;DHT22;41509;53.108;6.100;2022-11-25T14:33:22;11.20;99.90
55642;DHT22;41509;53.108;6.100;2022-11-25T14:35:54;11.10;99.90
55642;DHT22;41509;53.108;6.100;2022-11-25T14:38:33;11.00;99.90
55642;DHT22;41509;53.108;6.100;2022-11-25T14:43:54;10.90;99.90
55642;DHT22;41509;53.108;6.100;2022-11-25T14:46:22;10.90;99.90
55642;DHT22;41509;53.108;6.100;2022-11-25T14:48:57;10.80;99.90
55642;DHT22;41509;53.108;6.100;2022-11-25T14:51:26;10.80;99.90
55642;DHT22;41509;53.108;6.100;2022-11-25T14:53:52;10.70;99.90
55642;DHT22;41509;53.108;6.100;2022-11-25T14:56:26;10.70;99.90
55642;DHT22;41509;53.108;6.100;2022-11-25T14:58:53;10.70;99.90
55642;DHT22;41509;53.108;6.100;2022-11-25T15:01:27;10.60;99.90
55642;DHT22;41509;53.108;6.100;2022-11-25T15:06:39;10.60;99.90
55642;DHT22;41509;53.108;6.100;2022-11-25T15:09:24;10.50;99.90
55642;DHT22;41509;53.108;6.100;2022-11-25T15:12:01;10.50;99.90
55642;DHT22;41509;53.108;6.100;2022-11-25T15:14:33;10.50;99.90
55642;DHT22;41509;53.108;6.100;2022-11-25T15:16:59;10.50;99.90
55642;DHT22;41509;53.108;6.100;2022-11-25T15:19:32;10.50;99.90
55642;DHT22;41509;53.108;6.100;2022-11-25T15:22:01;10.40;99.90
55642;DHT22;41509;53.108;6.100;2022-11-25T15:24:29;10.40;99.90
55642;DHT22;41509;53.108;6.100;2022-11-25T15:26:57;10.40;99.90
55642;DHT22;41509;53.108;6.100;2022-11-25T15:29:24;10.40;99.90
55642;DHT22;41509;53.108;6.100;2022-11-25T15:31:51;10.30;99.90
55642;DHT22;41509;53.108;6.100;2022-11-25T15:34:18;10.30;99.90
55642;DHT22;41509;53.108;6.100;2022-11-25T15:36:46;10.30;99.90
55642;DHT22;41509;53.108;6.100;2022-11-25T15:41:49;10.20;99.90
55642;DHT22;41509;53.108;6.100;2022-11-25T15:44:55;10.20;99.90
55642;DHT22;41509;53.108;6.100;2022-11-25T15:47:24;10.10;99.90
55642;DHT22;41509;53.108;6.100;2022-11-25T15:52:26;10.00;99.90
55642;DHT22;41509;53.108;6.100;2022-11-25T15:55:00;10.00;99.90
55642;DHT22;41509;53.108;6.100;2022-11-25T15:57:33;9.90;99.90
55642;DHT22;41509;53.108;6.100;2022-11-25T16:07:39;9.70;99.90
55642;DHT22;41509;53.108;6.100;2022-11-25T16:15:59;9.60;99.90
55642;DHT22;41509;53.108;6.100;2022-11-25T16:18:38;9.60;99.90
55642;DHT22;41509;53.108;6.100;2022-11-25T16:21:09;9.50;99.90
55642;DHT22;41509;53.108;6.100;2022-11-25T16:23:46;9.50;99.90
55642;DHT22;41509;53.108;6.100;2022-11-25T16:26:26;9.40;99.90
55642;DHT22;41509;53.108;6.100;2022-11-25T16:28:55;9.40;99.90
55642;DHT22;41509;53.108;6.100;2022-11-25T16:31:21;9.40;99.90
55642;DHT22;41509;53.108;6.100;2022-11-25T16:33:54;9.30;99.90
55642;DHT22;41509;53.108;6.100;2022-11-25T16:36:21;9.30;99.90
55642;DHT22;41509;53.108;6.100;2022-11-25T16:38:51;9.30;99.90
55642;DHT22;41509;53.108;6.100;2022-11-25T16:41:23;9.30;99.90
55642;DHT22;41509;53.108;6.100;2022-11-25T16:43:52;9.30;99.90
55642;DHT22;41509;53.108;6.100;2022-11-25T16:46:18;9.20;99.90
55642;DHT22;41509;53.108;6.100;2022-11-25T16:48:44;9.20;99.90
55642;DHT22;41509;53.108;6.100;2022-11-25T16:51:19;9.30;99.90
55642;DHT22;41509;53.108;6.100;2022-11-25T16:53:45;9.20;99.90
55642;DHT22;41509;53.108;6.100;2022-11-25T16:56:20;9.20;99.90
55642;DHT22;41509;53.108;6.100;2022-11-25T16:58:50;9.20;99.90
55642;DHT22;41509;53.108;6.100;2022-11-25T17:01:16;9.20;99.90
55642;DHT22;41509;53.108;6.100;2022-11-25T17:03:43;9.10;99.90
55642;DHT22;41509;53.108;6.100;2022-11-25T17:06:27;9.20;99.90
55642;DHT22;41509;53.108;6.100;2022-11-25T17:08:55;9.10;99.90
55642;DHT22;41509;53.108;6.100;2022-11-25T17:11:51;9.10;99.90
55642;DHT22;41509;53.108;6.100;2022-11-25T17:14:52;9.10;99.90
55642;DHT22;41509;53.108;6.100;2022-11-25T17:17:21;9.00;99.90
55642;DHT22;41509;53.108;6.100;2022-11-25T17:19:48;9.00;99.90
55642;DHT22;41509;53.108;6.100;2022-11-25T17:22:17;9.00;99.90
55642;DHT22;41509;53.108;6.100;2022-11-25T17:24:45;8.90;99.90
55642;DHT22;41509;53.108;6.100;2022-11-25T17:27:24;9.00;99.90
55642;DHT22;41509;53.108;6.100;2022-11-25T17:29:54;8.80;99.90
55642;DHT22;41509;53.108;6.100;2022-11-25T17:32:23;8.80;99.90
55642;DHT22;41509;53.108;6.100;2022-11-25T17:34:53;8.80;99.90
55642;DHT22;41509;53.108;6.100;2022-11-25T17:37:23;8.80;99.90
55642;DHT22;41509;53.108;6.100;2022-11-25T17:39:53;8.70;99.90
55642;DHT22;41509;53.108;6.100;2022-11-25T17:42:39;8.70;99.90
55642;DHT22;41509;53.108;6.100;2022-11-25T17:45:14;8.70;99.90
55642;DHT22;41509;53.108;6.100;2022-11-25T17:47:40;8.60;99.90
55642;DHT22;41509;53.108;6.100;2022-11-25T17:50:23;8.60;99.90
55642;DHT22;41509;53.108;6.100;2022-11-25T17:52:53;8.60;99.90
55642;DHT22;41509;53.108;6.100;2022-11-25T17:55:24;8.50;99.90
55642;DHT22;41509;53.108;6.100;2022-11-25T17:57:52;8.50;99.90
55642;DHT22;41509;53.108;6.100;2022-11-25T18:00:26;8.50;99.90
55642;DHT22;41509;53.108;6.100;2022-11-25T18:02:51;8.50;99.90
55642;DHT22;41509;53.108;6.100;2022-11-25T18:05:20;8.50;99.90
55642;DHT22;41509;53.108;6.100;2022-11-25T18:07:46;8.50;99.90
55642;DHT22;41509;53.108;6.100;2022-11-25T18:10:17;8.50;99.90
55642;DHT22;41509;53.108;6.100;2022-11-25T18:12:48;8.50;99.90
55642;DHT22;41509;53.108;6.100;2022-11-25T18:15:23;8.40;99.90
55642;DHT22;41509;53.108;6.100;2022-11-25T18:17:54;8.40;99.90
55642;DHT22;41509;53.108;6.100;2022-11-25T18:20:24;8.40;99.90
55642;DHT22;41509;53.108;6.100;2022-11-25T18:22:52;8.40;99.90
55642;DHT22;41509;53.108;6.100;2022-11-25T18:25:28;8.40;99.90
55642;DHT22;41509;53.108;6.100;2022-11-25T18:27:56;8.40;99.90
55642;DHT22;41509;53.108;6.100;2022-11-25T18:30:30;8.40;99.90
55642;DHT22;41509;53.108;6.100;2022-11-25T18:33:01;8.40;99.90